Time;durP1;ratioP1;P1;durP2;ratioP2;P2;SDS_P1;SDS_P2;PMS_P1;PMS_P2;Temp;Humidity;BMP_temperature;BMP_pressure;BME280_temperature;BME280_humidity;BME280_pressure;Samples;Min_cycle;Max_cycle;Signal;HPM_P1;HPM_P2
2022/11/22 00:01:59;;;;;;;38.28;20.15;;;-3.10;99.90;;;;;;4994118;28;20223;-78
2022/11/22 00:04:25;;;;;;;34.17;20.20;;;-3.00;99.90;;;;;;4994091;28;20022;-77
2022/11/22 00:06:51;;;;;;;48.70;16.90;;;-3.00;99.90;;;;;;4994202;28;20387;-77
2022/11/22 00:09:17;;;;;;;27.73;17.23;;;-2.90;99.90;;;;;;4995801;28;20026;-78
2022/11/22 00:11:43;;;;;;;26.08;15.85;;;-3.00;99.90;;;;;;5000789;28;20030;-78
2022/11/22 00:14:08;;;;;;;28.65;17.08;;;-2.90;99.90;;;;;;4994948;28;20460;-78
2022/11/22 00:16:34;;;;;;;29.17;17.33;;;-2.90;99.90;;;;;;4994444;28;20033;-78
2022/11/22 00:19:00;;;;;;;25.83;14.38;;;-2.90;99.90;;;;;;4976529;28;20042;-77
2022/11/22 00:21:26;;;;;;;29.23;17.00;;;-2.90;99.90;;;;;;4993971;28;20030;-78
2022/11/22 00:23:58;;;;;;;31.75;17.70;;;-2.90;99.90;;;;;;4995043;28;20046;-80
2022/11/22 00:26:24;;;;;;;28.63;17.85;;;-2.90;99.90;;;;;;4991956;28;20117;-79
2022/11/22 00:28:50;;;;;;;26.35;16.60;;;-2.90;99.90;;;;;;4994927;28;20391;-83
2022/11/22 00:31:16;;;;;;;28.85;16.50;;;-2.90;99.90;;;;;;4989229;28;20031;-85
2022/11/22 00:33:42;;;;;;;29.92;15.25;;;-3.00;99.90;;;;;;4995029;28;20152;-84
2022/11/22 00:36:08;;;;;;;25.77;15.00;;;-3.00;99.90;;;;;;4977161;28;20037;-86
2022/11/22 00:38:34;;;;;;;28.45;17.15;;;-3.00;99.90;;;;;;4995547;28;20022;-83
2022/11/22 00:41:00;;;;;;;34.15;19.67;;;-3.00;99.90;;;;;;4995531;28;20030;-87
2022/11/22 00:43:26;;;;;;;28.08;15.23;;;-3.00;99.90;;;;;;4996880;28;20539;-85
2022/11/22 00:45:52;;;;;;;34.58;19.02;;;-3.00;99.90;;;;;;4997258;28;20032;-83
2022/11/22 00:48:18;;;;;;;32.78;19.08;;;-2.90;99.90;;;;;;4987514;28;20337;-84
2022/11/22 00:50:44;;;;;;;27.25;16.67;;;-2.90;99.90;;;;;;4996303;28;20030;-83
2022/11/22 00:53:09;;;;;;;33.78;20.77;;;-2.90;99.90;;;;;;4999007;28;20114;-81
2022/11/22 00:55:35;;;;;;;33.83;19.33;;;-2.80;99.90;;;;;;4998495;28;20030;-80
2022/11/22 00:58:01;;;;;;;22.83;12.93;;;-2.80;99.90;;;;;;4996927;28;20018;-77
2022/11/22 01:00:27;;;;;;;29.70;16.77;;;-2.80;99.90;;;;;;4992766;28;20080;-77
2022/11/22 01:02:53;;;;;;;29.00;16.17;;;-2.80;99.90;;;;;;4993032;28;20037;-77
2022/11/22 01:05:19;;;;;;;22.92;12.85;;;-2.80;99.90;;;;;;4992085;28;20496;-78
2022/11/22 01:07:44;;;;;;;31.58;19.65;;;-2.70;99.90;;;;;;4997806;28;20030;-79
2022/11/22 01:10:10;;;;;;;31.75;17.40;;;-2.70;99.90;;;;;;4993025;28;20036;-78
2022/11/22 01:12:36;;;;;;;32.85;17.77;;;-2.70;99.90;;;;;;4991707;28;20030;-79
2022/11/22 01:15:03;;;;;;;29.25;14.85;;;-2.70;99.90;;;;;;4991840;28;20106;-80
2022/11/22 01:17:29;;;;;;;26.67;16.30;;;-2.70;99.90;;;;;;4992688;28;20034;-79
2022/11/22 01:19:55;;;;;;;27.02;16.58;;;-2.70;99.90;;;;;;4991510;28;20027;-79
2022/11/22 01:22:21;;;;;;;32.88;19.98;;;-2.70;99.90;;;;;;4992467;28;20045;-80
2022/11/22 01:24:47;;;;;;;32.70;19.75;;;-2.80;99.90;;;;;;4992175;28;20089;-78
2022/11/22 01:27:13;;;;;;;30.10;19.15;;;-2.80;99.90;;;;;;4992599;28;20041;-80
2022/11/22 01:29:40;;;;;;;32.92;18.60;;;-2.70;99.90;;;;;;4992282;28;20018;-81
2022/11/22 01:32:06;;;;;;;35.08;16.48;;;-2.70;99.90;;;;;;4992502;28;20026;-79
2022/11/22 01:34:31;;;;;;;27.75;14.30;;;-2.80;99.90;;;;;;4992187;28;20041;-80
2022/11/22 01:36:58;;;;;;;30.58;18.35;;;-2.80;99.90;;;;;;4992471;28;20529;-79
2022/11/22 01:39:24;;;;;;;33.45;17.17;;;-2.80;99.90;;;;;;4992342;28;20058;-79
2022/11/22 01:41:49;;;;;;;27.77;19.73;;;-2.70;99.90;;;;;;4991952;28;20254;-80
2022/11/22 01:44:24;;;;;;;30.35;17.58;;;-2.80;99.90;;;;;;4992350;28;20022;-78
2022/11/22 01:47:05;;;;;;;40.95;22.90;;;-2.80;99.90;;;;;;4992319;28;20704;-79
2022/11/22 01:49:40;;;;;;;35.22;19.25;;;-2.80;99.90;;;;;;4992557;28;20034;-77
2022/11/22 01:52:12;;;;;;;35.53;18.75;;;-2.70;99.90;;;;;;4992453;28;20022;-79
2022/11/22 01:54:40;;;;;;;35.83;18.98;;;-2.70;99.90;;;;;;4993257;28;20457;-77
2022/11/22 01:57:12;;;;;;;35.65;20.50;;;-2.70;99.90;;;;;;5000879;28;20022;-79
2022/11/22 01:59:44;;;;;;;34.35;17.55;;;-2.70;99.90;;;;;;4993911;28;20480;-78
2022/11/22 02:02:13;;;;;;;34.92;18.33;;;-2.70;99.90;;;;;;4993148;28;20511;-79
2022/11/22 02:04:41;;;;;;;42.08;21.40;;;-2.80;99.90;;;;;;4996331;28;20022;-79
2022/11/22 02:07:20;;;;;;;33.80;17.15;;;-2.80;99.90;;;;;;4996077;28;20062;-78
2022/11/22 02:09:48;;;;;;;37.47;18.05;;;-2.80;99.90;;;;;;4996147;28;20023;-77
2022/11/22 02:12:16;;;;;;;39.55;21.50;;;-2.80;99.90;;;;;;4995946;28;21603;-79
2022/11/22 02:14:43;;;;;;;38.78;23.10;;;-2.80;99.90;;;;;;4995903;28;20072;-77
2022/11/22 02:17:09;;;;;;;40.58;22.40;;;-2.80;99.90;;;;;;4995799;28;20075;-78
2022/11/22 02:20:01;;;;;;;38.25;18.65;;;-2.80;99.90;;;;;;4995840;28;20484;-79
2022/11/22 02:22:47;;;;;;;39.53;19.60;;;-2.80;99.90;;;;;;4993778;28;20045;-78
2022/11/22 02:25:40;;;;;;;40.92;20.63;;;-2.70;99.90;;;;;;4988967;28;20064;-79
2022/11/22 02:28:11;;;;;;;33.50;17.30;;;-2.70;99.90;;;;;;4985321;28;20042;-79
2022/11/22 02:30:37;;;;;;;35.03;21.67;;;-2.70;99.90;;;;;;4995683;28;20026;-79
2022/11/22 02:33:04;;;;;;;38.75;20.55;;;-2.70;99.90;;;;;;4996009;28;20018;-79
2022/11/22 02:35:30;;;;;;;30.48;18.15;;;-2.70;99.90;;;;;;4995972;28;20104;-79
2022/11/22 02:38:05;;;;;;;32.92;17.58;;;-2.70;99.90;;;;;;4996709;28;20042;-79
2022/11/22 02:40:46;;;;;;;36.40;23.13;;;-2.60;99.90;;;;;;4995852;28;20030;-79
2022/11/22 02:43:18;;;;;;;28.30;16.35;;;-2.60;99.90;;;;;;4995245;28;20010;-79
2022/11/22 02:45:44;;;;;;;31.88;17.00;;;-2.60;99.90;;;;;;4995579;28;20376;-79
2022/11/22 02:48:15;;;;;;;36.42;16.35;;;-2.60;99.90;;;;;;4995185;28;20041;-79
2022/11/22 02:50:41;;;;;;;20.25;11.85;;;-2.60;99.90;;;;;;4994364;28;20113;-79
2022/11/22 02:53:08;;;;;;;34.13;19.73;;;-2.50;99.90;;;;;;4995828;28;20026;-80
2022/11/22 02:55:34;;;;;;;38.85;18.92;;;-2.50;99.90;;;;;;4996513;28;20030;-79
2022/11/22 02:58:00;;;;;;;29.98;14.02;;;-2.50;99.90;;;;;;5000539;28;20034;-80
2022/11/22 03:00:26;;;;;;;29.92;17.77;;;-2.50;99.90;;;;;;4995902;28;20163;-79
2022/11/22 03:02:52;;;;;;;31.83;16.75;;;-2.50;99.90;;;;;;4995166;28;20018;-78
2022/11/22 03:05:18;;;;;;;31.83;18.73;;;-2.50;99.90;;;;;;4995343;28;20437;-79
2022/11/22 03:07:47;;;;;;;39.90;18.70;;;-2.40;99.90;;;;;;4995569;28;20052;-81
2022/11/22 03:10:13;;;;;;;32.88;21.58;;;-2.40;99.90;;;;;;4994424;28;20021;-79
2022/11/22 03:12:39;;;;;;;29.50;14.73;;;-2.40;99.90;;;;;;4993914;28;20024;-79
2022/11/22 03:15:05;;;;;;;32.22;19.15;;;-2.40;99.90;;;;;;4994060;28;20486;-79
2022/11/22 03:17:31;;;;;;;39.20;21.92;;;-2.40;99.90;;;;;;4994766;28;20023;-81
2022/11/22 03:19:56;;;;;;;30.30;18.20;;;-2.40;99.90;;;;;;4994726;28;20026;-79
2022/11/22 03:22:22;;;;;;;35.80;21.73;;;-2.40;99.90;;;;;;4994608;28;20049;-80
2022/11/22 03:24:48;;;;;;;25.98;15.88;;;-2.40;99.90;;;;;;4994403;28;20061;-80
2022/11/22 03:27:14;;;;;;;35.03;17.77;;;-2.40;99.90;;;;;;4994660;28;20038;-77
2022/11/22 03:29:39;;;;;;;30.40;17.10;;;-2.40;99.90;;;;;;4994502;28;20049;-78
2022/11/22 03:32:05;;;;;;;31.30;17.75;;;-2.30;99.90;;;;;;4994513;28;20087;-77
2022/11/22 03:34:31;;;;;;;28.17;15.52;;;-2.30;99.90;;;;;;4976976;28;20080;-78
2022/11/22 03:36:57;;;;;;;30.75;17.27;;;-2.30;99.90;;;;;;4994704;28;20026;-78
2022/11/22 03:39:23;;;;;;;36.30;17.40;;;-2.20;99.90;;;;;;4992926;28;20030;-77
2022/11/22 03:41:49;;;;;;;17.48;9.95;;;-2.20;99.90;;;;;;4998482;28;20037;-79
2022/11/22 03:44:14;;;;;;;35.65;18.02;;;-2.20;99.90;;;;;;5000937;28;20029;-80
2022/11/22 03:46:40;;;;;;;35.90;17.05;;;-2.20;99.90;;;;;;4996272;28;20042;-80
2022/11/22 03:49:06;;;;;;;31.30;15.98;;;-2.20;99.90;;;;;;4994628;28;20023;-80
2022/11/22 03:51:32;;;;;;;24.52;15.13;;;-2.10;99.90;;;;;;4994513;28;20027;-80
2022/11/22 03:53:58;;;;;;;25.45;14.75;;;-2.10;99.90;;;;;;4993318;28;20034;-80
2022/11/22 03:56:24;;;;;;;20.20;11.05;;;-2.00;99.90;;;;;;4994217;28;20030;-80
2022/11/22 03:58:49;;;;;;;25.70;15.45;;;-2.00;99.90;;;;;;4994400;28;20070;-79
2022/11/22 04:01:15;;;;;;;25.30;13.52;;;-2.00;99.90;;;;;;4994223;28;20037;-79
2022/11/22 04:03:41;;;;;;;28.02;18.35;;;-2.00;99.90;;;;;;4994000;28;20084;-81
2022/11/22 04:06:07;;;;;;;29.58;16.85;;;-2.00;99.90;;;;;;4994014;28;20030;-79
2022/11/22 04:08:33;;;;;;;28.45;13.93;;;-2.00;99.90;;;;;;4977815;28;20577;-80
2022/11/22 04:10:58;;;;;;;33.58;18.95;;;-2.00;99.90;;;;;;4992649;28;20077;-80
2022/11/22 04:15:05;;;;;;;24.23;13.45;;;-2.00;99.90;;;;;;4994103;28;20030;-80
2022/11/22 04:16:10;;;;;;;31.23;19.27;;;-2.00;99.90;;;;;;4993852;28;20031;-79
2022/11/22 04:18:36;;;;;;;33.88;19.42;;;-2.00;99.90;;;;;;4993767;28;20150;-81
2022/11/22 04:25:12;;;;;;;34.70;18.02;;;-1.90;99.90;;;;;;4995125;28;20069;-81
2022/11/22 04:26:31;;;;;;;35.95;22.33;;;-2.00;99.90;;;;;;4985876;28;20065;-81
2022/11/22 04:28:57;;;;;;;31.42;16.90;;;-1.90;99.90;;;;;;4993981;28;20064;-80
2022/11/22 04:34:07;;;;;;;18.88;11.85;;;-1.90;99.90;;;;;;4993376;28;20072;-81
2022/11/22 04:36:33;;;;;;;31.85;14.77;;;-2.00;99.90;;;;;;4993459;28;20022;-80
2022/11/22 04:38:59;;;;;;;32.33;16.45;;;-2.00;99.90;;;;;;4992313;28;20026;-82
2022/11/22 04:41:24;;;;;;;27.10;15.90;;;-2.00;99.90;;;;;;4993836;28;20476;-78
2022/11/22 04:46:34;;;;;;;27.88;17.42;;;-1.90;99.90;;;;;;4999150;28;20514;-79
2022/11/22 04:49:00;;;;;;;28.40;18.17;;;-1.90;99.90;;;;;;4992082;28;20121;-78
2022/11/22 04:54:10;;;;;;;33.65;15.52;;;-1.80;99.90;;;;;;4993424;28;20514;-80
2022/11/22 04:56:36;;;;;;;35.55;18.88;;;-1.90;99.90;;;;;;4994149;28;20030;-81
2022/11/22 04:59:02;;;;;;;31.73;17.42;;;-1.80;99.90;;;;;;4993197;28;20026;-82
2022/11/22 05:01:28;;;;;;;38.28;18.05;;;-1.80;99.90;;;;;;4992874;28;20019;-80
2022/11/22 05:03:54;;;;;;;27.38;16.73;;;-1.80;99.90;;;;;;4993245;28;20041;-79
2022/11/22 05:06:19;;;;;;;27.67;16.98;;;-1.80;99.90;;;;;;4992599;28;20027;-79
2022/11/22 05:08:45;;;;;;;28.02;16.88;;;-1.80;99.90;;;;;;4992459;28;20045;-81
2022/11/22 05:11:11;;;;;;;32.15;17.30;;;-1.70;99.90;;;;;;4992795;28;20028;-80
2022/11/22 05:13:39;;;;;;;32.50;13.40;;;-1.70;99.90;;;;;;4992732;28;20030;-80
2022/11/22 05:16:06;;;;;;;24.98;15.05;;;-1.70;99.90;;;;;;4991158;28;20018;-80
2022/11/22 05:18:32;;;;;;;;;;;-1.70;99.90;;;;;;4992844;28;20018;-80
2022/11/22 05:21:02;;;;;;;25.67;13.88;;;-1.70;99.90;;;;;;4992415;28;19912;-80
2022/11/22 05:26:12;;;;;;;31.02;14.40;;;-1.60;99.90;;;;;;4993239;28;20029;-83
2022/11/22 05:28:38;;;;;;;24.90;16.83;;;-1.50;99.90;;;;;;4998227;28;20480;-79
2022/11/22 05:31:09;;;;;;;25.90;18.55;;;-1.50;99.90;;;;;;4996410;28;21452;-80
2022/11/22 05:33:37;;;;;;;24.60;13.95;;;-1.40;99.90;;;;;;4993263;28;20031;-81
2022/11/22 05:36:03;;;;;;;;;;;-1.30;99.90;;;;;;4996515;28;20018;-81
2022/11/22 05:38:29;;;;;;;13.38;9.30;;;-1.30;99.90;;;;;;4991351;28;19906;-82
2022/11/22 05:40:54;;;;;;;23.90;14.05;;;-1.30;99.90;;;;;;4992541;28;20014;-81
2022/11/22 05:43:20;;;;;;;17.92;10.43;;;-1.30;99.90;;;;;;4992584;28;20054;-80
2022/11/22 05:45:46;;;;;;;24.95;13.63;;;-1.20;99.90;;;;;;4992871;28;20022;-82
2022/11/22 05:48:12;;;;;;;27.80;14.65;;;-1.20;99.90;;;;;;4974989;28;20034;-82
2022/11/22 05:50:38;;;;;;;25.63;13.27;;;-1.20;99.90;;;;;;4993299;28;20396;-82
2022/11/22 05:53:03;;;;;;;21.10;12.15;;;-1.20;99.90;;;;;;4992868;28;20050;-82
2022/11/22 05:55:30;;;;;;;23.50;13.82;;;-1.10;99.90;;;;;;4991649;28;20022;-82
2022/11/22 05:58:00;;;;;;;22.85;11.02;;;-1.00;99.90;;;;;;4993885;28;20033;-82
2022/11/22 06:00:26;;;;;;;24.70;13.15;;;-1.00;99.90;;;;;;4990246;28;20023;-81
2022/11/22 06:02:52;;;;;;;19.02;10.18;;;-1.00;99.90;;;;;;4993661;28;20039;-82
2022/11/22 06:05:17;;;;;;;21.90;11.27;;;-0.90;99.90;;;;;;4992576;28;20041;-81
2022/11/22 06:07:44;;;;;;;24.98;13.93;;;-0.90;99.90;;;;;;4996230;28;20090;-80
2022/11/22 06:10:10;;;;;;;20.48;11.63;;;-0.90;99.90;;;;;;4995679;28;20023;-82
2022/11/22 06:12:35;;;;;;;21.15;13.60;;;-0.90;99.90;;;;;;4992299;28;20030;-78
2022/11/22 06:15:02;;;;;;;23.30;11.88;;;-0.80;99.90;;;;;;4992407;28;20026;-80
2022/11/22 06:17:27;;;;;;;22.75;11.85;;;-0.80;99.90;;;;;;4992187;28;20037;-82
2022/11/22 06:19:53;;;;;;;17.58;11.73;;;-0.70;99.90;;;;;;4990830;28;20492;-82
2022/11/22 06:22:20;;;;;;;25.02;11.38;;;-0.70;99.90;;;;;;4992328;28;20484;-82
2022/11/22 06:24:46;;;;;;;23.30;13.05;;;-0.60;99.90;;;;;;4992173;28;20047;-83
2022/11/22 06:27:12;;;;;;;21.67;11.15;;;-0.60;99.90;;;;;;4992213;28;20400;-81
2022/11/22 06:29:38;;;;;;;16.65;10.40;;;-0.50;99.90;;;;;;4992930;28;20432;-81
2022/11/22 06:32:03;;;;;;;23.38;13.85;;;-0.40;99.90;;;;;;4993815;28;20037;-82
2022/11/22 06:34:29;;;;;;;20.73;11.70;;;-0.40;99.90;;;;;;4992093;28;20086;-79
2022/11/22 06:36:55;;;;;;;18.65;9.35;;;-0.40;99.90;;;;;;4991651;28;20059;-79
2022/11/22 06:39:21;;;;;;;19.63;9.63;;;-0.30;99.90;;;;;;4991701;28;20023;-82
2022/11/22 06:41:47;;;;;;;18.90;10.57;;;-0.30;99.90;;;;;;4991960;28;20026;-82
2022/11/22 06:44:13;;;;;;;15.27;10.10;;;-0.30;99.90;;;;;;4992039;28;20037;-82
2022/11/22 06:46:39;;;;;;;21.83;12.10;;;-0.30;99.90;;;;;;4992166;28;20030;-80
2022/11/22 06:49:05;;;;;;;20.30;11.05;;;-0.30;99.90;;;;;;4991853;28;20101;-82
2022/11/22 06:51:31;;;;;;;16.60;9.00;;;-0.20;99.90;;;;;;4995644;28;20097;-82
2022/11/22 06:53:58;;;;;;;20.60;10.50;;;-0.20;99.90;;;;;;4995560;28;20029;-81
2022/11/22 06:56:30;;;;;;;21.73;11.10;;;-0.30;99.90;;;;;;4996281;28;20030;-83
2022/11/22 06:58:56;;;;;;;15.90;9.50;;;-0.30;99.90;;;;;;4994722;28;20073;-83
2022/11/22 07:01:25;;;;;;;16.30;9.07;;;-0.30;99.90;;;;;;4993836;28;20030;-80
2022/11/22 07:03:56;;;;;;;15.57;9.30;;;-0.30;99.90;;;;;;4995362;28;20027;-82
2022/11/22 07:06:24;;;;;;;15.98;9.35;;;-0.30;99.90;;;;;;4993650;28;20052;-82
2022/11/22 07:08:49;;;;;;;19.52;8.75;;;-0.30;99.90;;;;;;4998771;28;20027;-81
2022/11/22 07:11:18;;;;;;;15.88;9.02;;;-0.30;99.90;;;;;;4995543;28;20053;-83
2022/11/22 07:13:45;;;;;;;14.73;7.78;;;-0.30;99.90;;;;;;4996323;28;20054;-81
2022/11/22 07:16:13;;;;;;;14.85;10.20;;;-0.30;99.90;;;;;;5002952;28;20448;-79
2022/11/22 07:18:39;;;;;;;13.80;8.48;;;-0.30;99.90;;;;;;5002039;28;20030;-80
2022/11/22 07:21:08;;;;;;;13.98;7.38;;;-0.30;99.90;;;;;;4993179;28;20026;-80
2022/11/22 07:23:34;;;;;;;14.65;8.88;;;-0.30;99.90;;;;;;4995254;28;20047;-81
2022/11/22 07:26:00;;;;;;;19.15;7.70;;;-0.30;99.90;;;;;;4993621;28;20041;-81
2022/11/22 07:28:26;;;;;;;15.13;8.50;;;-0.30;99.90;;;;;;4993907;28;20039;-81
2022/11/22 07:30:52;;;;;;;15.65;7.25;;;-0.30;99.90;;;;;;4994985;28;20080;-81
2022/11/22 07:33:18;;;;;;;13.20;6.47;;;-0.30;99.90;;;;;;4994980;28;20026;-81
2022/11/22 07:35:44;;;;;;;15.10;9.30;;;-0.20;99.90;;;;;;4994995;28;20026;-80
2022/11/22 07:38:09;;;;;;;13.43;7.38;;;-0.10;99.90;;;;;;4994617;28;20034;-81
2022/11/22 07:40:35;;;;;;;20.80;8.23;;;-0.10;99.90;;;;;;4994583;28;20049;-82
2022/11/22 07:43:01;;;;;;;9.98;6.57;;;0.00;99.90;;;;;;4995430;28;20412;-83
2022/11/22 07:45:27;;;;;;;12.95;6.78;;;0.10;99.90;;;;;;4995825;28;20101;-79
2022/11/22 07:47:53;;;;;;;17.25;9.95;;;0.10;99.90;;;;;;4994239;28;20042;-80
2022/11/22 07:50:21;;;;;;;19.15;7.70;;;0.10;99.90;;;;;;4994980;28;20018;-79
2022/11/22 07:52:54;;;;;;;10.90;6.88;;;0.10;99.90;;;;;;4994744;28;20022;-79
2022/11/22 07:55:20;;;;;;;9.10;5.45;;;0.10;99.90;;;;;;4984932;28;20022;-78
2022/11/22 07:57:46;;;;;;;11.13;6.53;;;0.10;99.90;;;;;;4994297;28;20026;-79
2022/11/22 08:00:12;;;;;;;9.55;5.88;;;0.10;99.90;;;;;;4993335;28;20026;-78
2022/11/22 08:02:38;;;;;;;9.18;6.68;;;0.10;99.90;;;;;;4993904;28;20023;-79
2022/11/22 08:05:06;;;;;;;7.32;5.97;;;0.10;99.90;;;;;;4989190;28;20436;-78
2022/11/22 08:07:32;;;;;;;9.30;5.40;;;0.10;99.90;;;;;;4992646;28;20040;-81
2022/11/22 08:09:58;;;;;;;12.80;6.53;;;0.10;99.90;;;;;;4993854;28;20022;-79
2022/11/22 08:12:24;;;;;;;9.65;5.75;;;0.10;99.90;;;;;;4993642;28;20022;-80
2022/11/22 08:14:49;;;;;;;9.63;5.47;;;0.10;99.90;;;;;;4991906;28;20038;-80
2022/11/22 08:17:15;;;;;;;13.25;6.50;;;0.20;99.90;;;;;;4993725;28;20030;-79
2022/11/22 08:19:41;;;;;;;11.23;6.00;;;0.20;99.90;;;;;;4993120;28;20053;-81
2022/11/22 08:22:07;;;;;;;9.27;6.53;;;0.20;99.90;;;;;;4991855;28;20542;-80
2022/11/22 08:24:33;;;;;;;10.93;5.43;;;0.20;99.90;;;;;;4993140;28;20049;-80
2022/11/22 08:26:58;;;;;;;8.85;5.15;;;0.20;99.90;;;;;;4993573;28;20061;-80
2022/11/22 08:29:24;;;;;;;11.30;5.32;;;0.20;99.90;;;;;;4993336;28;20057;-79
2022/11/22 08:31:50;;;;;;;9.20;5.78;;;0.20;99.90;;;;;;4993495;28;20479;-81
2022/11/22 08:34:16;;;;;;;15.65;6.80;;;0.20;99.90;;;;;;4993216;28;20050;-81
2022/11/22 08:36:42;;;;;;;8.98;4.80;;;0.20;99.90;;;;;;4994365;28;20392;-79
2022/11/22 08:39:08;;;;;;;11.45;6.47;;;0.20;99.90;;;;;;4980530;28;20027;-79
2022/11/22 08:41:34;;;;;;;5.93;4.97;;;0.20;99.90;;;;;;4992081;28;20042;-81
2022/11/22 08:43:59;;;;;;;9.60;5.60;;;0.30;99.90;;;;;;4984809;28;20421;-78
2022/11/22 08:46:25;;;;;;;6.85;4.10;;;0.30;99.90;;;;;;4990484;28;20034;-79
2022/11/22 08:48:53;;;;;;;9.20;6.05;;;0.30;99.90;;;;;;4992900;28;20025;-79
2022/11/22 08:51:19;;;;;;;12.68;6.05;;;0.30;99.90;;;;;;4992821;28;20033;-81
2022/11/22 08:53:45;;;;;;;9.73;6.05;;;0.30;99.90;;;;;;4992927;28;20031;-80
2022/11/22 08:56:15;;;;;;;8.27;5.63;;;0.30;99.90;;;;;;4993473;28;20060;-81
2022/11/22 08:58:41;;;;;;;8.55;6.35;;;0.30;99.90;;;;;;4991975;28;20122;-81
2022/11/22 09:01:14;;;;;;;8.40;5.53;;;0.30;99.90;;;;;;4992821;28;20029;-78
2022/11/22 09:03:41;;;;;;;6.82;5.03;;;0.30;99.90;;;;;;4992081;28;20101;-79
2022/11/22 09:06:14;;;;;;;10.55;4.88;;;0.30;99.90;;;;;;4993333;28;20029;-79
2022/11/22 09:08:40;;;;;;;7.57;5.45;;;0.30;99.90;;;;;;5001092;28;20053;-79
2022/11/22 09:11:17;;;;;;;13.43;7.30;;;0.30;99.90;;;;;;4993611;28;20026;-79
2022/11/22 09:13:54;;;;;;;9.55;6.45;;;0.40;99.90;;;;;;4989430;28;20045;-78
2022/11/22 09:16:20;;;;;;;8.20;4.75;;;0.30;99.90;;;;;;4980407;28;20431;-79
2022/11/22 09:18:47;;;;;;;10.48;6.32;;;0.40;99.90;;;;;;4992997;28;20110;-78
2022/11/22 09:21:16;;;;;;;9.80;5.33;;;0.40;99.90;;;;;;4992686;28;20540;-78
2022/11/22 09:23:47;;;;;;;10.23;6.13;;;0.30;99.90;;;;;;4992470;28;20049;-80
2022/11/22 09:26:26;;;;;;;11.18;5.85;;;0.40;99.90;;;;;;4991115;28;20080;-80
2022/11/22 09:28:52;;;;;;;9.30;5.65;;;0.40;99.90;;;;;;4992244;28;20030;-76
2022/11/22 09:31:20;;;;;;;11.10;6.15;;;0.40;99.90;;;;;;4992064;28;20537;-79
2022/11/22 09:33:48;;;;;;;10.13;5.45;;;0.40;99.90;;;;;;4992302;28;20110;-79
2022/11/22 09:36:15;;;;;;;;;;;0.40;99.90;;;;;;4993097;28;20022;-77
2022/11/22 09:38:41;;;;;;;10.57;5.80;;;0.40;99.90;;;;;;4993884;28;19905;-77
2022/11/22 09:41:16;;;;;;;9.80;7.32;;;0.30;99.90;;;;;;4992399;28;20022;-77
2022/11/22 09:43:57;;;;;;;9.95;6.30;;;0.40;99.90;;;;;;4992083;28;20037;-79
2022/11/22 09:46:47;;;;;;;13.68;6.25;;;0.40;99.90;;;;;;4985222;28;20380;-80
2022/11/22 09:49:19;;;;;;;8.13;5.47;;;0.40;99.90;;;;;;4991935;28;20019;-78
2022/11/22 09:52:12;;;;;;;8.93;5.97;;;0.40;99.90;;;;;;4992002;28;20053;-80
2022/11/22 09:54:48;;;;;;;12.73;6.38;;;0.40;99.90;;;;;;4967734;28;20407;-80
2022/11/22 09:57:46;;;;;;;14.05;6.47;;;0.40;99.90;;;;;;4992493;28;20400;-81
2022/11/22 10:00:21;;;;;;;12.07;6.43;;;0.40;99.90;;;;;;4989865;28;20065;-79
2022/11/22 10:03:03;;;;;;;10.38;6.07;;;0.40;99.90;;;;;;4992149;28;20025;-79
2022/11/22 10:05:55;;;;;;;11.52;6.78;;;0.40;99.90;;;;;;4990481;28;20173;-78
2022/11/22 10:08:45;;;;;;;8.70;5.45;;;0.40;99.90;;;;;;4987286;28;20089;-79
2022/11/22 10:11:48;;;;;;;9.40;5.97;;;0.40;99.90;;;;;;4992889;28;20042;-78
2022/11/22 10:14:33;;;;;;;11.27;6.30;;;0.50;99.90;;;;;;4976624;28;20033;-78
2022/11/22 10:17:17;;;;;;;7.32;4.55;;;0.40;99.90;;;;;;4990398;28;20508;-78
2022/11/22 10:19:51;;;;;;;7.63;4.80;;;0.50;99.90;;;;;;4986994;28;20026;-79
2022/11/22 10:22:18;;;;;;;10.35;5.22;;;0.50;99.90;;;;;;4992018;28;20053;-78
2022/11/22 10:24:44;;;;;;;8.35;5.40;;;0.40;99.90;;;;;;4994370;28;20038;-78
2022/11/22 10:27:14;;;;;;;5.97;4.85;;;0.50;99.90;;;;;;4995696;28;20061;-77
2022/11/22 10:29:53;;;;;;;7.65;5.38;;;0.40;99.90;;;;;;4995696;28;20023;-78
2022/11/22 10:32:21;;;;;;;9.25;5.57;;;0.50;99.90;;;;;;4994807;28;20029;-78
2022/11/22 10:35:12;;;;;;;7.65;4.90;;;0.40;99.90;;;;;;4996029;28;20022;-79
2022/11/22 10:38:12;;;;;;;9.05;5.70;;;0.40;99.90;;;;;;4997304;28;20038;-80
2022/11/22 10:40:52;;;;;;;6.25;4.78;;;0.50;99.90;;;;;;4991032;28;20579;-76
2022/11/22 10:43:40;;;;;;;8.25;5.78;;;0.50;99.90;;;;;;4995953;28;20022;-80
2022/11/22 10:46:18;;;;;;;9.45;5.43;;;0.50;99.90;;;;;;4991145;28;20038;-80
2022/11/22 10:48:48;;;;;;;7.82;4.65;;;0.50;99.90;;;;;;4995287;28;20096;-86
2022/11/22 10:51:39;;;;;;;12.98;4.93;;;0.50;99.90;;;;;;4996254;28;20392;-79
2022/11/22 10:54:37;;;;;;;4.97;3.72;;;0.50;99.90;;;;;;4979768;28;20065;-80
2022/11/22 10:57:28;;;;;;;8.35;4.68;;;0.50;99.90;;;;;;4996892;28;20022;-78
2022/11/22 11:00:20;;;;;;;6.50;3.65;;;0.50;99.90;;;;;;4995879;28;20562;-78
2022/11/22 11:02:53;;;;;;;7.45;5.40;;;0.50;99.90;;;;;;4987197;28;20026;-80
2022/11/22 11:05:25;;;;;;;16.92;5.32;;;0.50;99.90;;;;;;4995238;28;20022;-81
2022/11/22 11:07:52;;;;;;;7.72;4.63;;;0.50;99.90;;;;;;4995186;28;20472;-81
2022/11/22 11:10:21;;;;;;;7.22;5.45;;;0.50;99.90;;;;;;4995181;28;20026;-80
2022/11/22 11:12:57;;;;;;;8.68;5.50;;;0.50;99.90;;;;;;4996053;28;20049;-81
2022/11/22 11:15:37;;;;;;;15.45;6.85;;;0.50;99.90;;;;;;4994390;28;20026;-78
2022/11/22 11:18:07;;;;;;;9.63;5.22;;;0.50;99.90;;;;;;4994705;28;20030;-77
2022/11/22 11:20:39;;;;;;;11.18;6.13;;;0.50;99.90;;;;;;4995019;28;20068;-77
2022/11/22 11:23:07;;;;;;;10.75;5.65;;;0.50;99.90;;;;;;4990759;28;20133;-78
2022/11/22 11:25:39;;;;;;;12.48;6.25;;;0.50;99.90;;;;;;4994848;28;20026;-77
2022/11/22 11:28:11;;;;;;;10.18;6.07;;;0.50;99.90;;;;;;4994056;28;20034;-76
2022/11/22 11:30:40;;;;;;;8.85;5.45;;;0.50;99.90;;;;;;4987847;28;20423;-77
2022/11/22 11:33:23;;;;;;;8.35;5.45;;;0.50;99.90;;;;;;4994437;28;20018;-78
2022/11/22 11:35:54;;;;;;;8.88;5.05;;;0.50;99.90;;;;;;4988132;28;20034;-79
2022/11/22 11:38:28;;;;;;;10.10;4.68;;;0.50;99.90;;;;;;4983393;28;20022;-76
2022/11/22 11:40:54;;;;;;;11.27;6.43;;;0.50;99.90;;;;;;4995553;28;20066;-77
2022/11/22 11:43:21;;;;;;;13.25;5.25;;;0.50;99.90;;;;;;4994329;28;20593;-79
2022/11/22 11:45:47;;;;;;;;;;;0.50;99.90;;;;;;4994934;28;20027;-77
2022/11/22 11:48:28;;;;;;;7.72;5.97;;;0.50;99.90;;;;;;4994220;28;19920;-80
2022/11/22 11:51:14;;;;;;;7.85;5.35;;;0.40;99.90;;;;;;4985231;28;20085;-80
2022/11/22 11:53:55;;;;;;;13.67;7.03;;;0.40;99.90;;;;;;4994133;28;20026;-78
2022/11/22 11:56:33;;;;;;;10.32;6.00;;;0.40;99.90;;;;;;4994468;28;20523;-78
2022/11/22 11:59:05;;;;;;;10.65;5.65;;;0.40;99.90;;;;;;4992903;28;20115;-78
2022/11/22 12:01:34;;;;;;;9.18;5.80;;;0.40;99.90;;;;;;4994420;28;20030;-80
2022/11/22 12:04:05;;;;;;;8.70;5.10;;;0.40;99.90;;;;;;4993158;28;20030;-77
2022/11/22 12:06:32;;;;;;;7.55;4.78;;;0.40;99.90;;;;;;4993341;28;20114;-79
2022/11/22 12:08:59;;;;;;;11.88;5.57;;;0.40;99.90;;;;;;4993546;28;20113;-78
2022/11/22 12:11:41;;;;;;;13.00;5.30;;;0.40;99.90;;;;;;4992753;28;20124;-78
2022/11/22 12:14:11;;;;;;;9.18;4.97;;;0.40;99.90;;;;;;4990047;28;20057;-79
2022/11/22 12:16:41;;;;;;;7.07;5.00;;;0.40;99.90;;;;;;4993819;28;20022;-79
2022/11/22 12:19:20;;;;;;;8.18;5.25;;;0.40;99.90;;;;;;4993756;28;20026;-76
2022/11/22 12:22:18;;;;;;;12.88;7.35;;;0.40;99.90;;;;;;4993570;28;20056;-77
2022/11/22 12:24:52;;;;;;;10.15;5.95;;;0.40;99.90;;;;;;4993006;28;20100;-76
2022/11/22 12:27:18;;;;;;;12.02;6.65;;;0.40;99.90;;;;;;4993518;28;20112;-77
2022/11/22 12:29:44;;;;;;;10.52;5.63;;;0.40;99.90;;;;;;4993413;28;20014;-79
2022/11/22 12:32:26;;;;;;;10.68;6.60;;;0.40;99.90;;;;;;4993576;28;20613;-80
2022/11/22 12:35:06;;;;;;;11.52;6.13;;;0.40;99.90;;;;;;4993215;28;20064;-79
2022/11/22 12:37:49;;;;;;;6.97;5.65;;;0.40;99.90;;;;;;4986739;28;20023;-79
2022/11/22 12:40:31;;;;;;;10.27;7.15;;;0.40;99.90;;;;;;4993534;28;20041;-77
2022/11/22 12:43:09;;;;;;;12.95;7.15;;;0.40;99.90;;;;;;4991819;28;20028;-77
2022/11/22 12:45:37;;;;;;;8.85;7.07;;;0.40;99.90;;;;;;4993834;28;20072;-79
2022/11/22 12:48:21;;;;;;;10.38;6.95;;;0.40;99.90;;;;;;4992315;28;20026;-79
2022/11/22 12:50:56;;;;;;;10.95;6.75;;;0.40;99.90;;;;;;4993370;28;20057;-78
2022/11/22 12:53:32;;;;;;;8.68;6.13;;;0.50;99.90;;;;;;4995225;28;20060;-78
2022/11/22 12:56:21;;;;;;;11.23;5.95;;;0.50;99.90;;;;;;4997307;28;20105;-79
2022/11/22 12:59:14;;;;;;;10.60;6.85;;;0.50;99.90;;;;;;4995653;28;20026;-79
2022/11/22 13:02:00;;;;;;;12.52;6.30;;;0.50;99.90;;;;;;4993797;28;20026;-79
2022/11/22 13:04:33;;;;;;;12.63;6.35;;;0.50;99.90;;;;;;4965447;28;20050;-79
2022/11/22 13:07:15;;;;;;;9.07;5.00;;;0.40;99.90;;;;;;4990989;28;20385;-78